Time;durP1;ratioP1;P1;durP2;ratioP2;P2;SDS_P1;SDS_P2;PMS_P1;PMS_P2;Temp;Humidity;BMP_temperature;BMP_pressure;BME280_temperature;BME280_humidity;BME280_pressure;Samples;Min_cycle;Max_cycle;Signal;HPM_P1;HPM_P2
2021/12/15 10:12:19;;;;;;;13.27;5.77;;;;;;;8.12;100.00;100546.09;5153243;27;39728;-80
2021/12/15 10:17:45;;;;;;;9.63;6.10;;;;;;;8.98;100.00;100519.09;5192465;27;43138;-83
2021/12/15 10:20:20;;;;;;;8.77;5.83;;;;;;;9.36;100.00;100521.44;5191998;27;43066;-86
2021/12/15 10:22:52;;;;;;;9.67;5.33;;;;;;;9.60;100.00;100525.09;5192357;27;38566;-80
2021/12/15 10:25:24;;;;;;;10.27;5.33;;;;;;;9.93;97.73;100541.66;5175004;27;40617;-85
2021/12/15 10:27:54;;;;;;;9.60;5.80;;;;;;;10.18;96.03;100538.19;5175406;27;41754;-83
2021/12/15 10:30:26;;;;;;;7.17;4.87;;;;;;;10.35;94.45;100520.84;5210902;27;42591;-85
2021/12/15 10:32:58;;;;;;;9.27;5.27;;;;;;;10.65;92.88;100533.91;5175874;27;38832;-87
2021/12/15 10:35:28;;;;;;;8.70;5.30;;;;;;;10.80;90.49;100517.44;5192480;27;41722;-82
2021/12/15 10:38:18;;;;;;;8.63;5.40;;;;;;;11.06;88.51;100530.59;5192879;27;41700;-84
2021/12/15 10:40:54;;;;;;;10.43;5.40;;;;;;;11.24;87.80;100528.19;5181856;27;41251;-84
2021/12/15 10:43:25;;;;;;;8.77;5.03;;;;;;;11.42;87.42;100524.78;5173404;27;40285;-86
2021/12/15 10:45:55;;;;;;;7.13;4.97;;;;;;;11.59;86.21;100522.34;5175962;27;40695;-81
2021/12/15 10:48:35;;;;;;;6.10;4.83;;;;;;;11.75;84.89;100530.53;5191849;27;43938;-83
2021/12/15 10:51:18;;;;;;;9.37;5.73;;;;;;;11.86;83.76;100529.22;5212209;27;43177;-85
2021/12/15 10:53:47;;;;;;;8.57;5.60;;;;;;;11.98;83.58;100527.84;5192297;27;40706;-80
2021/12/15 10:56:21;;;;;;;12.43;6.17;;;;;;;11.95;82.57;100511.19;5192244;27;41836;-84
2021/12/15 10:58:51;;;;;;;8.50;5.30;;;;;;;11.98;82.41;100513.72;5170225;27;43138;-80
2021/12/15 11:01:36;;;;;;;8.47;5.00;;;;;;;11.95;81.05;100516.50;5153686;27;41082;-82
2021/12/15 11:04:13;;;;;;;8.57;5.03;;;;;;;11.96;81.25;100515.56;5154271;27;39039;-83
2021/12/15 11:06:41;;;;;;;5.97;5.30;;;;;;;12.08;81.32;100517.72;5188533;27;41888;-82
2021/12/15 11:09:14;;;;;;;9.80;5.47;;;;;;;11.97;80.79;100509.34;5158011;27;42428;-84
2021/12/15 11:12:00;;;;;;;6.53;5.03;;;;;;;12.06;80.12;100532.84;5189098;27;43140;-83
2021/12/15 11:14:31;;;;;;;7.27;5.47;;;;;;;11.98;79.73;100519.03;5154161;27;39659;-83
2021/12/15 11:17:17;;;;;;;7.47;4.47;;;;;;;12.00;79.05;100523.31;5207354;27;41539;-83
2021/12/15 11:19:52;;;;;;;8.07;5.43;;;;;;;11.96;78.49;100528.84;5165480;27;42213;-82
2021/12/15 11:22:35;;;;;;;6.93;4.80;;;;;;;11.76;78.04;100532.28;5160730;27;41393;-84
2021/12/15 11:25:06;;;;;;;5.80;4.27;;;;;;;11.69;78.48;100526.34;5157222;27;39894;-83
2021/12/15 11:27:35;;;;;;;6.03;4.20;;;;;;;11.62;78.47;100524.84;5174384;27;42785;-82
2021/12/15 11:30:06;;;;;;;8.00;5.47;;;;;;;11.52;78.11;100526.16;5160185;27;41786;-82
2021/12/15 11:32:45;;;;;;;8.67;5.03;;;;;;;11.41;77.11;100517.75;5161538;27;40982;-82
2021/12/15 11:35:17;;;;;;;6.60;4.73;;;;;;;11.34;78.16;100524.25;5195751;27;39605;-82
2021/12/15 11:37:55;;;;;;;8.73;5.40;;;;;;;11.27;78.83;100514.78;5160876;27;41104;-83
2021/12/15 11:40:29;;;;;;;5.77;4.40;;;;;;;11.10;78.25;100495.09;5159939;27;41843;-85
2021/12/15 11:43:03;;;;;;;6.20;4.07;;;;;;;11.04;78.14;100482.06;5177413;27;42125;-83
2021/12/15 11:45:36;;;;;;;5.47;3.83;;;;;;;11.33;78.16;100517.19;5159225;27;38631;-84
2021/12/15 11:48:12;;;;;;;6.40;4.10;;;;;;;11.39;77.44;100516.94;5160372;27;41212;-83
2021/12/15 11:50:43;;;;;;;5.80;4.53;;;;;;;11.43;77.39;100507.94;5177153;27;41938;-81
2021/12/15 11:53:51;;;;;;;5.80;4.03;;;;;;;11.49;77.44;100507.72;5176738;27;41266;-83
2021/12/15 11:56:27;;;;;;;6.30;3.80;;;;;;;11.43;77.47;100469.03;5159750;27;41005;-84
2021/12/15 11:59:22;;;;;;;5.07;4.03;;;;;;;11.78;77.17;100494.16;5158734;27;42321;-87
2021/12/15 12:02:01;;;;;;;4.97;3.60;;;;;;;11.88;77.02;100481.34;5160469;27;43386;-84
2021/12/15 12:07:35;;;;;;;5.43;3.43;;;;;;;12.10;73.88;100457.44;5177449;27;39637;-84
2021/12/15 12:10:32;;;;;;;4.27;3.73;;;;;;;12.49;73.53;100497.31;5157545;27;40740;-86
2021/12/15 12:18:53;;;;;;;5.70;3.03;;;;;;;12.39;72.97;100491.53;5155726;27;38954;-85
2021/12/15 12:24:17;;;;;;;4.53;3.27;;;;;;;12.46;71.69;100506.28;5157509;27;42132;-83
2021/12/15 12:27:13;;;;;;;3.00;2.70;;;;;;;12.26;71.74;100477.06;5159991;27;41783;-84
2021/12/15 12:29:43;;;;;;;3.47;2.90;;;;;;;12.39;72.13;100496.84;5176484;27;39093;-83
2021/12/15 12:32:46;;;;;;;3.80;2.53;;;;;;;12.45;72.45;100485.97;5158122;27;40600;-85
2021/12/15 12:38:12;;;;;;;3.70;2.60;;;;;;;12.40;72.17;100472.00;5177994;27;42965;-86
2021/12/15 12:40:49;;;;;;;3.30;3.00;;;;;;;12.35;72.13;100470.50;5135361;27;40912;-83
2021/12/15 12:43:38;;;;;;;4.40;3.00;;;;;;;12.36;72.14;100486.38;5117402;27;40546;-87
2021/12/15 12:46:15;;;;;;;4.23;2.70;;;;;;;12.21;70.88;100492.34;5126281;27;44220;-83
2021/12/15 13:00:35;;;;;;;4.20;2.77;;;;;;;11.94;72.54;100481.09;5130908;27;42016;-80
2021/12/15 13:03:10;;;;;;;3.07;2.63;;;;;;;11.87;73.37;100485.78;5138174;27;39357;-81
2021/12/15 13:05:57;;;;;;;3.17;2.87;;;;;;;11.79;73.71;100485.25;5138123;27;41032;-84
2021/12/15 13:08:36;;;;;;;3.40;2.70;;;;;;;11.53;73.87;100441.19;5137372;27;44666;-82
2021/12/15 13:11:09;;;;;;;3.80;2.57;;;;;;;11.61;74.03;100450.63;5155567;27;42451;-83
2021/12/15 13:13:50;;;;;;;3.70;2.47;;;;;;;11.60;73.36;100465.69;5137305;27;39116;-83
2021/12/15 13:16:25;;;;;;;3.43;2.50;;;;;;;11.70;73.66;100474.13;5155456;27;41889;-83
2021/12/15 13:19:16;;;;;;;3.67;2.80;;;;;;;11.43;73.50;100429.22;5137437;27;43206;-85
2021/12/15 13:30:47;;;;;;;3.17;2.37;;;;;;;11.67;73.57;100469.81;5153993;27;43039;-83
2021/12/15 13:33:18;;;;;;;2.77;2.23;;;;;;;11.47;73.49;100445.88;5137829;27;41434;-80
2021/12/15 13:35:51;;;;;;;1.90;1.70;;;;;;;11.39;73.41;100445.31;5137296;27;38983;-84
2021/12/15 13:38:23;;;;;;;6.93;3.03;;;;;;;11.48;73.82;100468.84;5147009;27;41664;-78
2021/12/15 13:41:10;;;;;;;3.33;2.70;;;;;;;11.41;74.46;100462.03;5156285;27;41506;-80
2021/12/15 13:43:45;;;;;;;4.13;2.63;;;;;;;11.32;74.29;100468.59;5160871;27;45011;-83
2021/12/15 13:46:49;;;;;;;3.13;2.50;;;;;;;11.06;74.52;100429.84;5157909;27;38609;-84
2021/12/15 13:49:28;;;;;;;4.20;2.80;;;;;;;11.16;73.95;100478.06;5159482;27;41729;-81
2021/12/15 13:52:15;;;;;;;2.57;2.13;;;;;;;11.09;74.51;100474.81;5173569;27;44153;-82
2021/12/15 13:55:22;;;;;;;3.30;2.43;;;;;;;11.07;74.83;100471.34;5155875;27;42391;-80
2021/12/15 13:58:22;;;;;;;2.70;2.20;;;;;;;10.92;74.65;100458.66;5161105;27;40219;-83
2021/12/15 14:00:54;;;;;;;3.80;2.87;;;;;;;10.87;74.60;100459.78;5140152;27;41041;-81
2021/12/15 14:03:26;;;;;;;2.50;2.30;;;;;;;10.86;74.77;100463.34;5122566;27;41539;-84
2021/12/15 14:05:58;;;;;;;4.13;2.63;;;;;;;10.66;75.06;100445.53;5136497;27;41492;-83
2021/12/15 14:08:40;;;;;;;3.80;2.37;;;;;;;10.74;75.02;100468.19;5118724;27;39094;-83
2021/12/15 14:11:17;;;;;;;4.80;3.73;;;;;;;10.67;74.81;100463.16;5172728;27;43791;-82
2021/12/15 14:14:05;;;;;;;3.83;3.43;;;;;;;10.56;74.96;100455.63;5152219;27;42765;-80
2021/12/15 14:16:51;;;;;;;4.07;2.87;;;;;;;10.41;75.51;100435.84;5121735;27;40885;-81
2021/12/15 14:19:29;;;;;;;3.13;2.80;;;;;;;10.49;75.36;100458.56;5126071;27;38897;-83
2021/12/15 14:22:00;;;;;;;2.90;2.40;;;;;;;10.55;75.47;100474.22;5115728;27;42568;-83
2021/12/15 14:24:29;;;;;;;3.27;2.40;;;;;;;10.53;75.59;100471.63;5146885;27;42816;-82
2021/12/15 14:26:57;;;;;;;3.63;2.90;;;;;;;10.41;75.87;100454.38;5135713;27;41251;-83
2021/12/15 14:29:35;;;;;;;3.83;3.00;;;;;;;10.48;76.05;100464.78;5126454;27;38687;-83
2021/12/15 14:32:09;;;;;;;2.93;2.63;;;;;;;10.42;76.10;100463.19;5125562;27;41566;-83
2021/12/15 14:34:42;;;;;;;3.83;3.27;;;;;;;10.36;76.18;100448.41;5127938;27;41709;-84
2021/12/15 14:37:12;;;;;;;3.57;2.80;;;;;;;10.25;76.06;100431.19;5116314;27;42522;-82
2021/12/15 14:39:43;;;;;;;5.33;2.80;;;;;;;10.24;76.22;100438.25;5128161;27;39321;-84
2021/12/15 14:45:45;;;;;;;3.53;2.83;;;;;;;10.29;76.55;100470.72;5115222;27;41740;-85
2021/12/15 14:48:23;;;;;;;3.17;2.87;;;;;;;9.90;76.46;100416.50;5115404;27;41419;-85
2021/12/15 14:50:59;;;;;;;3.50;2.60;;;;;;;10.05;77.00;100453.03;5131550;27;40028;-87
2021/12/15 14:53:27;;;;;;;5.10;3.27;;;;;;;9.90;77.21;100437.66;5130203;27;41153;-85
2021/12/15 14:55:55;;;;;;;3.57;2.87;;;;;;;9.88;77.86;100448.34;5119113;27;41935;-85
2021/12/15 14:58:26;;;;;;;6.70;3.50;;;;;;;9.88;78.10;100466.84;5121890;27;41169;-86
2021/12/15 15:00:54;;;;;;;4.00;3.20;;;;;;;9.64;78.25;100443.88;5138545;27;38917;-89
2021/12/15 15:03:23;;;;;;;3.80;2.87;;;;;;;9.62;78.78;100457.16;5139731;27;42047;-89
2021/12/15 15:05:51;;;;;;;5.40;3.80;;;;;;;9.69;79.01;100465.72;5130673;27;42299;-90
2021/12/15 15:08:24;;;;;;;4.73;3.30;;;;;;;9.45;79.15;100443.59;5120314;27;44524;-88
2021/12/15 15:10:53;;;;;;;3.83;2.63;;;;;;;9.48;79.26;100459.38;5139933;27;39290;-88
2021/12/15 15:13:22;;;;;;;3.57;2.63;;;;;;;9.42;79.26;100454.25;5120808;27;41876;-87
2021/12/15 15:16:04;;;;;;;4.00;2.80;;;;;;;9.38;79.23;100457.94;5157265;27;42961;-86
2021/12/15 15:18:39;;;;;;;4.23;3.43;;;;;;;9.46;79.24;100469.13;5135223;27;41429;-86
2021/12/15 15:21:11;;;;;;;2.80;1.97;;;;;;;9.55;79.46;100483.81;5136160;27;39016;-84
2021/12/15 15:23:42;;;;;;;5.93;2.83;;;;;;;9.56;79.26;100486.41;5123859;27;43154;-85
2021/12/15 15:26:13;;;;;;;3.50;2.30;;;;;;;9.47;79.13;100465.56;5141848;27;42343;-87
2021/12/15 15:28:46;;;;;;;2.70;2.20;;;;;;;9.32;79.38;100442.25;5130131;27;41239;-88
2021/12/15 15:31:19;;;;;;;4.20;2.50;;;;;;;9.46;79.09;100463.84;5136383;27;38872;-87
2021/12/15 15:33:48;;;;;;;3.43;2.63;;;;;;;9.55;79.24;100478.53;5126747;27;40549;-86
2021/12/15 15:36:19;;;;;;;3.03;2.10;;;;;;;9.34;79.10;100451.00;5137884;27;43293;-86
2021/12/15 15:38:49;;;;;;;2.40;1.70;;;;;;;9.49;79.23;100479.63;5122025;27;42275;-90
2021/12/15 15:41:20;;;;;;;2.87;2.10;;;;;;;9.42;79.18;100467.47;5117831;27;40205;-84
2021/12/15 15:43:51;;;;;;;3.17;1.97;;;;;;;9.55;79.30;100494.41;5120420;27;40572;-84
2021/12/15 15:46:22;;;;;;;2.30;1.73;;;;;;;9.47;79.21;100481.44;5131045;27;41500;-86
2021/12/15 15:48:53;;;;;;;2.50;2.10;;;;;;;9.44;79.09;100481.53;5137549;27;41302;-84
2021/12/15 15:51:23;;;;;;;2.90;2.27;;;;;;;9.45;79.33;100477.97;5134626;27;38878;-83
2021/12/15 15:53:52;;;;;;;2.40;1.87;;;;;;;9.53;79.39;100497.09;5123916;27;41782;-84
2021/12/15 15:56:22;;;;;;;2.93;2.10;;;;;;;9.54;79.26;100508.53;5155768;27;43590;-83
2021/12/15 15:58:53;;;;;;;2.03;1.70;;;;;;;9.45;79.20;100496.47;5138413;27;42416;-83
2021/12/15 16:01:22;;;;;;;2.37;1.80;;;;;;;9.39;79.43;100494.03;5135259;27;39853;-83
2021/12/15 16:03:54;;;;;;;3.10;2.27;;;;;;;9.50;79.46;100513.09;5124761;27;40604;-86
2021/12/15 16:06:23;;;;;;;3.10;2.00;;;;;;;9.42;79.52;100501.84;5125096;27;41588;-86
2021/12/15 16:09:00;;;;;;;2.70;2.00;;;;;;;9.52;79.65;100511.22;5125073;27;41223;-86
